sensor_id;sensor_type;location;lat;lon;timestamp;pressure;altitude;pressure_sealevel;temperature;humidity
4469;BME280;2247;42.666;23.292;2023-05-10T20:55:02;94637.94;;;10.97;70.84
4469;BME280;2247;42.666;23.292;2023-05-10T20:57:31;94633.44;;;11.02;70.58
4469;BME280;2247;42.666;23.292;2023-05-10T20:59:57;94628.41;;;11.11;70.61
4469;BME280;2247;42.666;23.292;2023-05-10T21:02:24;94624.19;;;11.15;70.00
4469;BME280;2247;42.666;23.292;2023-05-10T21:04:52;94642.88;;;11.29;69.85
4469;BME280;2247;42.666;23.292;2023-05-10T21:07:19;94629.69;;;11.29;69.22
4469;BME280;2247;42.666;23.292;2023-05-10T21:09:47;94638.34;;;11.34;69.12
4469;BME280;2247;42.666;23.292;2023-05-10T21:12:15;94643.94;;;11.33;69.16
4469;BME280;2247;42.666;23.292;2023-05-10T21:14:42;94628.88;;;11.38;69.17
4469;BME280;2247;42.666;23.292;2023-05-10T21:17:11;94627.25;;;11.42;69.06
4469;BME280;2247;42.666;23.292;2023-05-10T21:19:38;94627.25;;;11.42;68.63
4469;BME280;2247;42.666;23.292;2023-05-10T21:22:05;94628.03;;;11.43;69.13
4469;BME280;2247;42.666;23.292;2023-05-10T21:24:32;94632.31;;;11.34;69.45
4469;BME280;2247;42.666;23.292;2023-05-10T21:27:01;94641.53;;;11.36;68.73
4469;BME280;2247;42.666;23.292;2023-05-10T21:29:30;94628.88;;;11.38;69.12
4469;BME280;2247;42.666;23.292;2023-05-10T21:31:57;94626.25;;;11.33;68.77
4469;BME280;2247;42.666;23.292;2023-05-10T21:34:24;94622.81;;;11.33;68.60
4469;BME280;2247;42.666;23.292;2023-05-10T21:36:52;94632.03;;;11.35;68.54
4469;BME280;2247;42.666;23.292;2023-05-10T21:39:19;94629.63;;;11.44;68.53
4469;BME280;2247;42.666;23.292;2023-05-10T21:41:46;94615.63;;;11.49;68.63
4469;BME280;2247;42.666;23.292;2023-05-10T21:44:13;94617.50;;;11.43;69.04
4469;BME280;2247;42.666;23.292;2023-05-10T21:46:41;94614.06;;;11.48;69.53
4469;BME280;2247;42.666;23.292;2023-05-10T21:49:08;94623.47;;;11.64;69.04
4469;BME280;2247;42.666;23.292;2023-05-10T21:51:35;94609.72;;;11.77;68.60
4469;BME280;2247;42.666;23.292;2023-05-10T21:54:02;94627.97;;;11.68;69.38
4469;BME280;2247;42.666;23.292;2023-05-10T21:56:29;94631.41;;;11.64;69.15
4469;BME280;2247;42.666;23.292;2023-05-10T21:58:56;94621.66;;;11.59;69.38
4469;BME280;2247;42.666;23.292;2023-05-10T22:01:23;94629.31;;;11.61;69.59
4469;BME280;2247;42.666;23.292;2023-05-10T22:03:51;94616.66;;;11.58;69.28
4469;BME280;2247;42.666;23.292;2023-05-10T22:06:18;94627.47;;;11.56;69.26
4469;BME280;2247;42.666;23.292;2023-05-10T22:08:45;94624.06;;;11.51;70.37
4469;BME280;2247;42.666;23.292;2023-05-10T22:11:11;94615.84;;;11.57;69.63
4469;BME280;2247;42.666;23.292;2023-05-10T22:13:38;94620.38;;;11.52;70.08
4469;BME280;2247;42.666;23.292;2023-05-10T22:16:05;94633.50;;;11.62;71.73
4469;BME280;2247;42.666;23.292;2023-05-10T22:18:33;94617.41;;;11.68;70.61
4469;BME280;2247;42.666;23.292;2023-05-10T22:21:01;94634.03;;;11.64;70.50
4469;BME280;2247;42.666;23.292;2023-05-10T22:23:28;94615.28;;;11.65;70.35
4469;BME280;2247;42.666;23.292;2023-05-10T22:25:58;94626.16;;;11.59;71.19
4469;BME280;2247;42.666;23.292;2023-05-10T22:28:25;94625.94;;;11.45;71.45
4469;BME280;2247;42.666;23.292;2023-05-10T22:30:52;94616.69;;;11.42;71.40
4469;BME280;2247;42.666;23.292;2023-05-10T22:33:19;94627.31;;;11.32;71.41
4469;BME280;2247;42.666;23.292;2023-05-10T22:35:46;94626.25;;;11.33;71.17
4469;BME280;2247;42.666;23.292;2023-05-10T22:38:14;94622.28;;;11.31;71.34
4469;BME280;2247;42.666;23.292;2023-05-10T22:40:41;94611.47;;;11.32;71.08
4469;BME280;2247;42.666;23.292;2023-05-10T22:43:08;94621.47;;;11.40;71.76
4469;BME280;2247;42.666;23.292;2023-05-10T22:45:34;94603.03;;;11.30;71.94
4469;BME280;2247;42.666;23.292;2023-05-10T22:48:02;94609.91;;;11.31;72.15
4469;BME280;2247;42.666;23.292;2023-05-10T22:50:30;94612.56;;;11.26;72.62
4469;BME280;2247;42.666;23.292;2023-05-10T22:52:56;94625.72;;;11.31;72.47
4469;BME280;2247;42.666;23.292;2023-05-10T22:55:25;94614.38;;;11.31;72.94
4469;BME280;2247;42.666;23.292;2023-05-10T22:57:51;94613.84;;;11.29;73.38
4469;BME280;2247;42.666;23.292;2023-05-10T23:00:19;94606.72;;;11.29;73.16
4469;BME280;2247;42.666;23.292;2023-05-10T23:02:45;94601.19;;;11.31;73.23
4469;BME280;2247;42.666;23.292;2023-05-10T23:05:12;94597.22;;;11.28;73.08
4469;BME280;2247;42.666;23.292;2023-05-10T23:07:39;94598.06;;;11.19;73.74
4469;BME280;2247;42.666;23.292;2023-05-10T23:10:06;94589.88;;;11.20;74.18
4469;BME280;2247;42.666;23.292;2023-05-10T23:12:34;94590.41;;;11.17;73.39
4469;BME280;2247;42.666;23.292;2023-05-10T23:15:01;94598.84;;;11.24;73.45
4469;BME280;2247;42.666;23.292;2023-05-10T23:17:28;94578.25;;;11.26;73.96
4469;BME280;2247;42.666;23.292;2023-05-10T23:19:54;94589.88;;;11.20;73.95
4469;BME280;2247;42.666;23.292;2023-05-10T23:22:21;94590.97;;;11.09;74.47
4469;BME280;2247;42.666;23.292;2023-05-10T23:24:48;94593.88;;;11.13;73.75
4469;BME280;2247;42.666;23.292;2023-05-10T23:27:15;94577.22;;;11.22;74.01
4469;BME280;2247;42.666;23.292;2023-05-10T23:29:43;94588.81;;;11.26;73.43
4469;BME280;2247;42.666;23.292;2023-05-10T23:32:10;94579.31;;;11.25;72.99
4469;BME280;2247;42.666;23.292;2023-05-10T23:34:36;94580.13;;;11.16;74.24
4469;BME280;2247;42.666;23.292;2023-05-10T23:37:03;94587.50;;;11.14;74.07
4469;BME280;2247;42.666;23.292;2023-05-10T23:39:30;94573.53;;;11.18;74.04
4469;BME280;2247;42.666;23.292;2023-05-10T23:41:57;94580.91;;;11.16;73.13
4469;BME280;2247;42.666;23.292;2023-05-10T23:44:24;94578.81;;;11.18;73.13
4469;BME280;2247;42.666;23.292;2023-05-10T23:46:52;94583.81;;;11.25;72.22
4469;BME280;2247;42.666;23.292;2023-05-10T23:49:19;94568.78;;;11.15;73.27
4469;BME280;2247;42.666;23.292;2023-05-10T23:51:46;94582.53;;;11.07;73.70
4469;BME280;2247;42.666;23.292;2023-05-10T23:54:13;94579.91;;;11.02;73.32
4469;BME280;2247;42.666;23.292;2023-05-10T23:56:40;94562.00;;;10.94;73.28
4469;BME280;2247;42.666;23.292;2023-05-10T23:59:07;94569.41;;;10.92;73.19
